sensor_id;sensor_type;location;lat;lon;timestamp;temperature;humidity
11704;DHT22;5908;51.354;7.458;2023-07-31T00:00:11;17.20;99.90
11704;DHT22;5908;51.354;7.458;2023-07-31T00:02:38;17.20;99.90
11704;DHT22;5908;51.354;7.458;2023-07-31T00:05:05;17.20;99.90
11704;DHT22;5908;51.354;7.458;2023-07-31T00:07:32;17.20;99.90
11704;DHT22;5908;51.354;7.458;2023-07-31T00:10:00;17.10;99.90
11704;DHT22;5908;51.354;7.458;2023-07-31T00:12:28;17.10;99.90
11704;DHT22;5908;51.354;7.458;2023-07-31T00:14:54;17.00;99.90
11704;DHT22;5908;51.354;7.458;2023-07-31T00:17:21;17.10;99.90
11704;DHT22;5908;51.354;7.458;2023-07-31T00:19:48;17.10;99.90
11704;DHT22;5908;51.354;7.458;2023-07-31T00:22:16;17.10;99.90
11704;DHT22;5908;51.354;7.458;2023-07-31T00:24:43;17.10;99.90
11704;DHT22;5908;51.354;7.458;2023-07-31T00:27:11;17.10;99.90
11704;DHT22;5908;51.354;7.458;2023-07-31T00:29:37;17.10;99.90
11704;DHT22;5908;51.354;7.458;2023-07-31T00:32:05;17.00;99.90
11704;DHT22;5908;51.354;7.458;2023-07-31T00:34:32;17.00;99.90
11704;DHT22;5908;51.354;7.458;2023-07-31T00:36:59;16.90;99.90
11704;DHT22;5908;51.354;7.458;2023-07-31T00:39:26;16.80;99.90
11704;DHT22;5908;51.354;7.458;2023-07-31T00:41:52;16.80;99.90
11704;DHT22;5908;51.354;7.458;2023-07-31T00:44:20;16.70;99.90
11704;DHT22;5908;51.354;7.458;2023-07-31T00:46:47;16.70;99.90
11704;DHT22;5908;51.354;7.458;2023-07-31T00:49:14;16.70;99.90
11704;DHT22;5908;51.354;7.458;2023-07-31T00:51:41;16.70;99.90
11704;DHT22;5908;51.354;7.458;2023-07-31T00:54:08;16.80;99.90
11704;DHT22;5908;51.354;7.458;2023-07-31T00:56:35;16.80;99.90
11704;DHT22;5908;51.354;7.458;2023-07-31T00:59:02;16.80;99.90
11704;DHT22;5908;51.354;7.458;2023-07-31T01:01:30;16.90;99.90
11704;DHT22;5908;51.354;7.458;2023-07-31T01:03:57;16.90;99.90
11704;DHT22;5908;51.354;7.458;2023-07-31T01:06:33;16.90;99.90
11704;DHT22;5908;51.354;7.458;2023-07-31T01:09:05;17.00;99.90
11704;DHT22;5908;51.354;7.458;2023-07-31T01:11:43;17.00;99.90
11704;DHT22;5908;51.354;7.458;2023-07-31T01:14:13;17.00;99.90
11704;DHT22;5908;51.354;7.458;2023-07-31T01:16:41;17.10;99.90
11704;DHT22;5908;51.354;7.458;2023-07-31T01:19:09;17.10;99.90
11704;DHT22;5908;51.354;7.458;2023-07-31T01:21:57;17.20;99.90
11704;DHT22;5908;51.354;7.458;2023-07-31T01:24:30;17.20;99.90
11704;DHT22;5908;51.354;7.458;2023-07-31T01:27:06;17.10;99.90
11704;DHT22;5908;51.354;7.458;2023-07-31T01:29:38;17.20;99.90
11704;DHT22;5908;51.354;7.458;2023-07-31T01:32:07;17.20;99.90
11704;DHT22;5908;51.354;7.458;2023-07-31T01:34:35;17.20;99.90
11704;DHT22;5908;51.354;7.458;2023-07-31T01:37:03;17.20;99.90
11704;DHT22;5908;51.354;7.458;2023-07-31T01:39:30;17.20;99.90
11704;DHT22;5908;51.354;7.458;2023-07-31T01:41:56;17.60;99.90
11704;DHT22;5908;51.354;7.458;2023-07-31T01:44:24;17.40;99.90
11704;DHT22;5908;51.354;7.458;2023-07-31T01:46:51;17.30;99.90
11704;DHT22;5908;51.354;7.458;2023-07-31T01:49:18;17.80;99.90
11704;DHT22;5908;51.354;7.458;2023-07-31T01:51:45;17.50;99.90
11704;DHT22;5908;51.354;7.458;2023-07-31T01:54:11;17.40;99.90
11704;DHT22;5908;51.354;7.458;2023-07-31T01:56:38;17.90;99.90
11704;DHT22;5908;51.354;7.458;2023-07-31T01:59:05;17.60;99.90
11704;DHT22;5908;51.354;7.458;2023-07-31T02:01:33;18.00;99.90
11704;DHT22;5908;51.354;7.458;2023-07-31T02:04:00;17.70;99.90
11704;DHT22;5908;51.354;7.458;2023-07-31T02:06:27;18.00;99.90
11704;DHT22;5908;51.354;7.458;2023-07-31T02:08:53;17.70;99.90
11704;DHT22;5908;51.354;7.458;2023-07-31T02:11:20;18.00;99.90
11704;DHT22;5908;51.354;7.458;2023-07-31T02:13:47;17.70;99.90
11704;DHT22;5908;51.354;7.458;2023-07-31T02:16:14;18.10;99.90
11704;DHT22;5908;51.354;7.458;2023-07-31T02:18:42;17.70;99.90
11704;DHT22;5908;51.354;7.458;2023-07-31T02:21:08;17.50;99.90
11704;DHT22;5908;51.354;7.458;2023-07-31T02:23:35;17.40;99.90
11704;DHT22;5908;51.354;7.458;2023-07-31T02:26:01;17.40;99.90
11704;DHT22;5908;51.354;7.458;2023-07-31T02:28:28;17.40;99.90
11704;DHT22;5908;51.354;7.458;2023-07-31T02:30:55;17.30;99.90
11704;DHT22;5908;51.354;7.458;2023-07-31T02:33:21;17.30;99.90
11704;DHT22;5908;51.354;7.458;2023-07-31T02:35:49;17.30;99.90
11704;DHT22;5908;51.354;7.458;2023-07-31T02:38:16;17.30;99.90
11704;DHT22;5908;51.354;7.458;2023-07-31T02:40:42;17.30;99.90
11704;DHT22;5908;51.354;7.458;2023-07-31T02:43:09;17.30;99.90
11704;DHT22;5908;51.354;7.458;2023-07-31T02:45:35;17.30;99.90
11704;DHT22;5908;51.354;7.458;2023-07-31T02:48:02;17.30;99.90
11704;DHT22;5908;51.354;7.458;2023-07-31T02:50:29;17.30;99.90
11704;DHT22;5908;51.354;7.458;2023-07-31T02:52:57;17.30;99.90
11704;DHT22;5908;51.354;7.458;2023-07-31T02:55:23;17.30;99.90
11704;DHT22;5908;51.354;7.458;2023-07-31T02:57:50;17.30;99.90
11704;DHT22;5908;51.354;7.458;2023-07-31T03:00:17;17.30;99.90
11704;DHT22;5908;51.354;7.458;2023-07-31T03:02:44;17.30;99.90
11704;DHT22;5908;51.354;7.458;2023-07-31T03:05:10;17.20;99.90
11704;DHT22;5908;51.354;7.458;2023-07-31T03:07:37;17.40;99.90
11704;DHT22;5908;51.354;7.458;2023-07-31T03:10:06;17.30;99.90
11704;DHT22;5908;51.354;7.458;2023-07-31T03:12:32;17.30;99.90
11704;DHT22;5908;51.354;7.458;2023-07-31T03:14:59;17.30;99.90
11704;DHT22;5908;51.354;7.458;2023-07-31T03:17:26;17.40;99.90
11704;DHT22;5908;51.354;7.458;2023-07-31T03:19:52;17.30;99.90
11704;DHT22;5908;51.354;7.458;2023-07-31T03:22:19;17.30;99.90
11704;DHT22;5908;51.354;7.458;2023-07-31T03:24:45;17.30;99.90
11704;DHT22;5908;51.354;7.458;2023-07-31T03:27:13;17.30;99.90
11704;DHT22;5908;51.354;7.458;2023-07-31T03:29:40;17.30;99.90
11704;DHT22;5908;51.354;7.458;2023-07-31T03:32:06;17.30;99.90
11704;DHT22;5908;51.354;7.458;2023-07-31T03:34:33;17.40;99.90
11704;DHT22;5908;51.354;7.458;2023-07-31T03:37:00;17.40;99.90
11704;DHT22;5908;51.354;7.458;2023-07-31T03:39:26;17.50;99.90
11704;DHT22;5908;51.354;7.458;2023-07-31T03:41:53;17.50;99.90
11704;DHT22;5908;51.354;7.458;2023-07-31T03:44:21;17.40;99.90
11704;DHT22;5908;51.354;7.458;2023-07-31T03:46:47;17.50;99.90
11704;DHT22;5908;51.354;7.458;2023-07-31T03:49:14;17.50;99.90
11704;DHT22;5908;51.354;7.458;2023-07-31T03:51:41;17.50;99.90
11704;DHT22;5908;51.354;7.458;2023-07-31T03:54:08;17.60;99.90
11704;DHT22;5908;51.354;7.458;2023-07-31T03:56:34;17.60;99.90
11704;DHT22;5908;51.354;7.458;2023-07-31T03:59:01;17.60;99.90
11704;DHT22;5908;51.354;7.458;2023-07-31T04:01:29;17.60;99.90
11704;DHT22;5908;51.354;7.458;2023-07-31T04:03:55;17.60;99.90
11704;DHT22;5908;51.354;7.458;2023-07-31T04:06:22;17.60;99.90
11704;DHT22;5908;51.354;7.458;2023-07-31T04:08:49;17.60;99.90
11704;DHT22;5908;51.354;7.458;2023-07-31T04:11:15;17.60;99.90
11704;DHT22;5908;51.354;7.458;2023-07-31T04:13:42;17.60;99.90
11704;DHT22;5908;51.354;7.458;2023-07-31T04:16:08;17.60;99.90
11704;DHT22;5908;51.354;7.458;2023-07-31T04:18:37;17.60;99.90
11704;DHT22;5908;51.354;7.458;2023-07-31T04:21:03;17.70;99.90
11704;DHT22;5908;51.354;7.458;2023-07-31T04:23:30;17.70;99.90
11704;DHT22;5908;51.354;7.458;2023-07-31T04:25:56;17.70;99.90
11704;DHT22;5908;51.354;7.458;2023-07-31T04:28:23;17.70;99.90
11704;DHT22;5908;51.354;7.458;2023-07-31T04:30:51;17.70;99.90
11704;DHT22;5908;51.354;7.458;2023-07-31T04:33:17;17.80;99.90
11704;DHT22;5908;51.354;7.458;2023-07-31T04:35:49;17.80;99.90
11704;DHT22;5908;51.354;7.458;2023-07-31T04:38:17;17.90;99.90
11704;DHT22;5908;51.354;7.458;2023-07-31T04:40:44;17.90;99.90
11704;DHT22;5908;51.354;7.458;2023-07-31T04:43:10;18.00;99.90
11704;DHT22;5908;51.354;7.458;2023-07-31T04:45:37;18.00;99.90
11704;DHT22;5908;51.354;7.458;2023-07-31T04:48:04;18.00;99.90
11704;DHT22;5908;51.354;7.458;2023-07-31T04:50:30;18.00;99.90
11704;DHT22;5908;51.354;7.458;2023-07-31T04:52:58;18.00;99.90
11704;DHT22;5908;51.354;7.458;2023-07-31T04:55:25;18.00;99.90
11704;DHT22;5908;51.354;7.458;2023-07-31T04:57:51;17.90;99.90
11704;DHT22;5908;51.354;7.458;2023-07-31T05:00:18;17.80;99.90
11704;DHT22;5908;51.354;7.458;2023-07-31T05:02:45;17.70;99.90
11704;DHT22;5908;51.354;7.458;2023-07-31T05:05:11;17.70;99.90
11704;DHT22;5908;51.354;7.458;2023-07-31T05:07:38;17.60;99.90
11704;DHT22;5908;51.354;7.458;2023-07-31T05:10:06;17.60;99.90
11704;DHT22;5908;51.354;7.458;2023-07-31T05:12:33;17.60;99.90
11704;DHT22;5908;51.354;7.458;2023-07-31T05:14:59;17.60;99.90
11704;DHT22;5908;51.354;7.458;2023-07-31T05:17:26;17.70;99.90
11704;DHT22;5908;51.354;7.458;2023-07-31T05:19:53;17.80;99.90
11704;DHT22;5908;51.354;7.458;2023-07-31T05:22:19;17.90;99.90
11704;DHT22;5908;51.354;7.458;2023-07-31T05:24:46;17.90;99.90
11704;DHT22;5908;51.354;7.458;2023-07-31T05:27:14;18.00;99.90
11704;DHT22;5908;51.354;7.458;2023-07-31T05:29:43;18.10;99.90
11704;DHT22;5908;51.354;7.458;2023-07-31T05:32:10;18.30;99.90
11704;DHT22;5908;51.354;7.458;2023-07-31T05:34:37;18.90;99.90
11704;DHT22;5908;51.354;7.458;2023-07-31T05:37:04;19.20;99.90
11704;DHT22;5908;51.354;7.458;2023-07-31T05:39:31;19.40;99.90
11704;DHT22;5908;51.354;7.458;2023-07-31T05:41:58;19.50;99.90
11704;DHT22;5908;51.354;7.458;2023-07-31T05:44:26;19.60;99.90
11704;DHT22;5908;51.354;7.458;2023-07-31T05:46:53;19.60;99.90
11704;DHT22;5908;51.354;7.458;2023-07-31T05:49:19;19.60;99.90
11704;DHT22;5908;51.354;7.458;2023-07-31T05:51:46;19.60;99.90
11704;DHT22;5908;51.354;7.458;2023-07-31T05:54:13;19.70;99.90
11704;DHT22;5908;51.354;7.458;2023-07-31T05:56:40;19.80;99.90
11704;DHT22;5908;51.354;7.458;2023-07-31T05:59:08;19.70;99.90
11704;DHT22;5908;51.354;7.458;2023-07-31T06:01:36;19.80;99.90
11704;DHT22;5908;51.354;7.458;2023-07-31T06:04:03;19.80;99.90
11704;DHT22;5908;51.354;7.458;2023-07-31T06:06:30;19.90;99.90
11704;DHT22;5908;51.354;7.458;2023-07-31T06:08:57;19.90;99.90
11704;DHT22;5908;51.354;7.458;2023-07-31T06:11:24;19.40;99.90
11704;DHT22;5908;51.354;7.458;2023-07-31T06:13:50;19.20;99.90
11704;DHT22;5908;51.354;7.458;2023-07-31T06:16:17;19.00;99.90
11704;DHT22;5908;51.354;7.458;2023-07-31T06:18:45;18.70;99.90
11704;DHT22;5908;51.354;7.458;2023-07-31T06:21:11;18.70;99.90
11704;DHT22;5908;51.354;7.458;2023-07-31T06:23:38;18.70;99.90
11704;DHT22;5908;51.354;7.458;2023-07-31T06:26:05;18.70;99.90
11704;DHT22;5908;51.354;7.458;2023-07-31T06:28:32;18.80;99.90
11704;DHT22;5908;51.354;7.458;2023-07-31T06:30:59;18.90;99.90
11704;DHT22;5908;51.354;7.458;2023-07-31T06:33:26;18.90;99.90
11704;DHT22;5908;51.354;7.458;2023-07-31T06:35:54;18.80;99.90
11704;DHT22;5908;51.354;7.458;2023-07-31T06:38:24;19.30;99.90
11704;DHT22;5908;51.354;7.458;2023-07-31T06:40:51;19.50;99.90
11704;DHT22;5908;51.354;7.458;2023-07-31T06:43:17;19.60;99.90
11704;DHT22;5908;51.354;7.458;2023-07-31T06:45:44;19.70;99.90
11704;DHT22;5908;51.354;7.458;2023-07-31T06:48:12;19.70;99.90
11704;DHT22;5908;51.354;7.458;2023-07-31T06:50:38;19.80;99.90
11704;DHT22;5908;51.354;7.458;2023-07-31T06:53:06;19.90;99.90
11704;DHT22;5908;51.354;7.458;2023-07-31T06:55:33;20.00;99.90
11704;DHT22;5908;51.354;7.458;2023-07-31T06:58:00;20.30;99.90
11704;DHT22;5908;51.354;7.458;2023-07-31T07:00:27;19.90;99.90
11704;DHT22;5908;51.354;7.458;2023-07-31T07:02:54;19.80;99.90
11704;DHT22;5908;51.354;7.458;2023-07-31T07:05:20;19.50;99.90
11704;DHT22;5908;51.354;7.458;2023-07-31T07:07:48;19.90;99.90
11704;DHT22;5908;51.354;7.458;2023-07-31T07:10:17;19.50;99.90
11704;DHT22;5908;51.354;7.458;2023-07-31T07:12:44;19.40;99.90
11704;DHT22;5908;51.354;7.458;2023-07-31T07:15:10;19.40;99.90
11704;DHT22;5908;51.354;7.458;2023-07-31T07:17:37;19.40;99.90
11704;DHT22;5908;51.354;7.458;2023-07-31T07:20:05;19.80;99.90
11704;DHT22;5908;51.354;7.458;2023-07-31T07:22:32;20.00;99.90
11704;DHT22;5908;51.354;7.458;2023-07-31T07:24:58;20.10;99.90
11704;DHT22;5908;51.354;7.458;2023-07-31T07:27:27;20.10;99.90
11704;DHT22;5908;51.354;7.458;2023-07-31T07:29:53;20.30;99.90
11704;DHT22;5908;51.354;7.458;2023-07-31T07:32:21;20.00;99.90
11704;DHT22;5908;51.354;7.458;2023-07-31T07:34:48;19.90;99.90
11704;DHT22;5908;51.354;7.458;2023-07-31T07:37:15;19.80;99.90
11704;DHT22;5908;51.354;7.458;2023-07-31T07:39:42;19.90;99.90
11704;DHT22;5908;51.354;7.458;2023-07-31T07:42:09;20.00;99.90
11704;DHT22;5908;51.354;7.458;2023-07-31T07:44:37;20.50;99.90
11704;DHT22;5908;51.354;7.458;2023-07-31T07:47:04;20.70;99.90
11704;DHT22;5908;51.354;7.458;2023-07-31T07:49:33;20.20;99.90
11704;DHT22;5908;51.354;7.458;2023-07-31T07:52:00;20.30;99.90
11704;DHT22;5908;51.354;7.458;2023-07-31T07:54:26;20.30;99.90
11704;DHT22;5908;51.354;7.458;2023-07-31T07:56:53;20.20;99.90
11704;DHT22;5908;51.354;7.458;2023-07-31T07:59:20;20.00;99.90
11704;DHT22;5908;51.354;7.458;2023-07-31T08:01:48;19.90;99.90
11704;DHT22;5908;51.354;7.458;2023-07-31T08:04:15;19.70;99.90
11704;DHT22;5908;51.354;7.458;2023-07-31T08:06:41;19.80;99.90
11704;DHT22;5908;51.354;7.458;2023-07-31T08:09:08;19.30;99.90
11704;DHT22;5908;51.354;7.458;2023-07-31T08:11:35;19.20;99.90
11704;DHT22;5908;51.354;7.458;2023-07-31T08:14:02;19.40;99.90
11704;DHT22;5908;51.354;7.458;2023-07-31T08:16:29;20.20;99.90
11704;DHT22;5908;51.354;7.458;2023-07-31T08:18:57;20.50;99.90
11704;DHT22;5908;51.354;7.458;2023-07-31T08:21:24;20.60;99.90
11704;DHT22;5908;51.354;7.458;2023-07-31T08:23:50;20.70;99.90
11704;DHT22;5908;51.354;7.458;2023-07-31T08:26:17;20.80;99.90
11704;DHT22;5908;51.354;7.458;2023-07-31T08:28:44;20.90;99.90
11704;DHT22;5908;51.354;7.458;2023-07-31T08:31:11;21.10;99.90
11704;DHT22;5908;51.354;7.458;2023-07-31T08:33:38;21.40;99.90
11704;DHT22;5908;51.354;7.458;2023-07-31T08:36:07;21.70;99.90
11704;DHT22;5908;51.354;7.458;2023-07-31T08:38:33;21.50;99.90
11704;DHT22;5908;51.354;7.458;2023-07-31T08:41:02;21.40;99.90
11704;DHT22;5908;51.354;7.458;2023-07-31T08:43:30;21.30;99.90
11704;DHT22;5908;51.354;7.458;2023-07-31T08:45:57;21.40;99.90
11704;DHT22;5908;51.354;7.458;2023-07-31T08:48:24;21.40;99.90
11704;DHT22;5908;51.354;7.458;2023-07-31T08:50:52;21.30;99.90
11704;DHT22;5908;51.354;7.458;2023-07-31T08:53:21;21.40;99.90
11704;DHT22;5908;51.354;7.458;2023-07-31T08:55:48;21.60;99.90
11704;DHT22;5908;51.354;7.458;2023-07-31T08:58:17;21.60;99.90
11704;DHT22;5908;51.354;7.458;2023-07-31T09:00:46;21.70;99.90
11704;DHT22;5908;51.354;7.458;2023-07-31T09:03:14;21.80;99.90
11704;DHT22;5908;51.354;7.458;2023-07-31T09:05:43;22.00;99.90
11704;DHT22;5908;51.354;7.458;2023-07-31T09:08:11;21.90;99.90
11704;DHT22;5908;51.354;7.458;2023-07-31T09:10:42;21.80;99.90
11704;DHT22;5908;51.354;7.458;2023-07-31T09:13:09;21.80;99.90
11704;DHT22;5908;51.354;7.458;2023-07-31T09:15:36;22.20;99.90
11704;DHT22;5908;51.354;7.458;2023-07-31T09:18:04;21.70;99.90
11704;DHT22;5908;51.354;7.458;2023-07-31T09:20:31;21.90;99.90
11704;DHT22;5908;51.354;7.458;2023-07-31T09:23:05;21.60;99.90
11704;DHT22;5908;51.354;7.458;2023-07-31T09:25:32;22.10;99.90
11704;DHT22;5908;51.354;7.458;2023-07-31T09:28:02;22.30;99.90
11704;DHT22;5908;51.354;7.458;2023-07-31T09:30:28;22.50;99.90
11704;DHT22;5908;51.354;7.458;2023-07-31T09:33:00;22.50;99.90
11704;DHT22;5908;51.354;7.458;2023-07-31T09:35:29;21.80;99.90
11704;DHT22;5908;51.354;7.458;2023-07-31T09:37:58;21.60;99.90
11704;DHT22;5908;51.354;7.458;2023-07-31T09:40:26;21.40;99.90
11704;DHT22;5908;51.354;7.458;2023-07-31T09:42:54;21.50;99.90
11704;DHT22;5908;51.354;7.458;2023-07-31T09:45:23;21.70;99.90
11704;DHT22;5908;51.354;7.458;2023-07-31T09:47:50;21.90;99.90
11704;DHT22;5908;51.354;7.458;2023-07-31T09:50:17;21.90;99.90
11704;DHT22;5908;51.354;7.458;2023-07-31T09:52:45;22.00;99.90
11704;DHT22;5908;51.354;7.458;2023-07-31T09:55:12;21.90;99.90
11704;DHT22;5908;51.354;7.458;2023-07-31T09:57:40;22.00;99.90
11704;DHT22;5908;51.354;7.458;2023-07-31T10:00:09;22.20;99.90
11704;DHT22;5908;51.354;7.458;2023-07-31T10:02:38;22.40;99.90
11704;DHT22;5908;51.354;7.458;2023-07-31T10:05:06;22.30;99.90
11704;DHT22;5908;51.354;7.458;2023-07-31T10:07:37;22.30;99.90
11704;DHT22;5908;51.354;7.458;2023-07-31T10:10:07;22.20;99.90
11704;DHT22;5908;51.354;7.458;2023-07-31T10:12:35;22.20;99.90
11704;DHT22;5908;51.354;7.458;2023-07-31T10:15:02;22.10;99.90
11704;DHT22;5908;51.354;7.458;2023-07-31T10:17:30;21.80;99.90
11704;DHT22;5908;51.354;7.458;2023-07-31T10:19:59;21.60;99.90
11704;DHT22;5908;51.354;7.458;2023-07-31T10:22:27;22.20;99.90
11704;DHT22;5908;51.354;7.458;2023-07-31T10:24:55;22.40;99.90
11704;DHT22;5908;51.354;7.458;2023-07-31T10:27:24;22.70;99.90
11704;DHT22;5908;51.354;7.458;2023-07-31T10:29:52;22.20;99.90
11704;DHT22;5908;51.354;7.458;2023-07-31T10:32:19;22.00;99.90
11704;DHT22;5908;51.354;7.458;2023-07-31T10:34:48;22.00;99.90
11704;DHT22;5908;51.354;7.458;2023-07-31T10:37:29;22.10;99.90
11704;DHT22;5908;51.354;7.458;2023-07-31T10:39:58;22.20;99.90
11704;DHT22;5908;51.354;7.458;2023-07-31T10:42:33;22.30;99.90
11704;DHT22;5908;51.354;7.458;2023-07-31T10:45:03;22.20;99.90
11704;DHT22;5908;51.354;7.458;2023-07-31T10:47:30;22.30;99.90
11704;DHT22;5908;51.354;7.458;2023-07-31T10:50:13;22.70;99.90
11704;DHT22;5908;51.354;7.458;2023-07-31T10:52:47;22.60;99.90
11704;DHT22;5908;51.354;7.458;2023-07-31T10:55:31;22.10;99.90
11704;DHT22;5908;51.354;7.458;2023-07-31T10:58:05;21.80;99.90
11704;DHT22;5908;51.354;7.458;2023-07-31T11:00:32;22.50;99.90
11704;DHT22;5908;51.354;7.458;2023-07-31T11:03:01;22.10;99.90
11704;DHT22;5908;51.354;7.458;2023-07-31T11:05:48;21.70;99.90
11704;DHT22;5908;51.354;7.458;2023-07-31T11:08:17;21.50;99.90
11704;DHT22;5908;51.354;7.458;2023-07-31T11:10:45;21.50;99.90
11704;DHT22;5908;51.354;7.458;2023-07-31T11:13:13;22.00;99.90
11704;DHT22;5908;51.354;7.458;2023-07-31T11:15:39;22.10;99.90
11704;DHT22;5908;51.354;7.458;2023-07-31T11:18:06;22.00;99.90
11704;DHT22;5908;51.354;7.458;2023-07-31T11:20:34;21.40;99.90
11704;DHT22;5908;51.354;7.458;2023-07-31T11:23:01;21.90;99.90
11704;DHT22;5908;51.354;7.458;2023-07-31T11:25:30;22.10;99.90
11704;DHT22;5908;51.354;7.458;2023-07-31T11:27:58;22.30;99.90
11704;DHT22;5908;51.354;7.458;2023-07-31T11:30:28;22.70;99.90
11704;DHT22;5908;51.354;7.458;2023-07-31T11:32:55;22.60;99.90
11704;DHT22;5908;51.354;7.458;2023-07-31T11:35:22;22.80;99.90
11704;DHT22;5908;51.354;7.458;2023-07-31T11:37:49;22.70;99.90
11704;DHT22;5908;51.354;7.458;2023-07-31T11:40:16;22.70;99.90
11704;DHT22;5908;51.354;7.458;2023-07-31T11:42:44;22.50;99.90
11704;DHT22;5908;51.354;7.458;2023-07-31T11:45:11;22.20;99.90
11704;DHT22;5908;51.354;7.458;2023-07-31T11:47:38;22.10;99.90
11704;DHT22;5908;51.354;7.458;2023-07-31T11:50:06;22.30;99.90
11704;DHT22;5908;51.354;7.458;2023-07-31T11:52:37;22.50;99.90
11704;DHT22;5908;51.354;7.458;2023-07-31T11:55:07;22.50;99.90
11704;DHT22;5908;51.354;7.458;2023-07-31T11:57:36;22.50;99.90
11704;DHT22;5908;51.354;7.458;2023-07-31T12:00:07;22.30;99.90
11704;DHT22;5908;51.354;7.458;2023-07-31T12:02:35;21.90;99.90
11704;DHT22;5908;51.354;7.458;2023-07-31T12:05:02;22.20;99.90
11704;DHT22;5908;51.354;7.458;2023-07-31T12:07:46;22.40;99.90
11704;DHT22;5908;51.354;7.458;2023-07-31T12:10:25;22.30;99.90
11704;DHT22;5908;51.354;7.458;2023-07-31T12:12:59;21.90;99.90
11704;DHT22;5908;51.354;7.458;2023-07-31T12:15:33;21.70;99.90
11704;DHT22;5908;51.354;7.458;2023-07-31T12:18:00;21.70;99.90
11704;DHT22;5908;51.354;7.458;2023-07-31T12:20:27;21.90;99.90
11704;DHT22;5908;51.354;7.458;2023-07-31T12:22:56;22.10;99.90
11704;DHT22;5908;51.354;7.458;2023-07-31T12:25:29;22.10;99.90
11704;DHT22;5908;51.354;7.458;2023-07-31T12:27:56;22.10;99.90
11704;DHT22;5908;51.354;7.458;2023-07-31T12:30:29;22.00;99.90
11704;DHT22;5908;51.354;7.458;2023-07-31T12:32:57;21.90;99.90
11704;DHT22;5908;51.354;7.458;2023-07-31T12:35:35;21.80;99.90
11704;DHT22;5908;51.354;7.458;2023-07-31T12:38:02;22.00;99.90
11704;DHT22;5908;51.354;7.458;2023-07-31T12:40:29;22.40;99.90
11704;DHT22;5908;51.354;7.458;2023-07-31T12:42:55;22.70;99.90
11704;DHT22;5908;51.354;7.458;2023-07-31T12:45:22;22.90;99.90
11704;DHT22;5908;51.354;7.458;2023-07-31T12:47:49;23.00;99.90
11704;DHT22;5908;51.354;7.458;2023-07-31T12:50:17;23.00;99.90
11704;DHT22;5908;51.354;7.458;2023-07-31T12:52:44;23.10;99.90
11704;DHT22;5908;51.354;7.458;2023-07-31T12:55:11;22.90;99.90
11704;DHT22;5908;51.354;7.458;2023-07-31T12:57:39;22.80;99.90
11704;DHT22;5908;51.354;7.458;2023-07-31T13:00:07;22.70;99.90
11704;DHT22;5908;51.354;7.458;2023-07-31T13:02:34;22.40;99.90
11704;DHT22;5908;51.354;7.458;2023-07-31T13:05:00;22.10;99.90
11704;DHT22;5908;51.354;7.458;2023-07-31T13:07:29;21.70;99.90
11704;DHT22;5908;51.354;7.458;2023-07-31T13:09:55;22.20;99.90
11704;DHT22;5908;51.354;7.458;2023-07-31T13:12:22;21.90;99.90
11704;DHT22;5908;51.354;7.458;2023-07-31T13:14:50;21.70;99.90
11704;DHT22;5908;51.354;7.458;2023-07-31T13:17:18;21.50;99.90
11704;DHT22;5908;51.354;7.458;2023-07-31T13:19:44;21.80;99.90
11704;DHT22;5908;51.354;7.458;2023-07-31T13:22:11;22.00;99.90
11704;DHT22;5908;51.354;7.458;2023-07-31T13:24:39;22.00;99.90
11704;DHT22;5908;51.354;7.458;2023-07-31T13:27:06;22.00;99.90
11704;DHT22;5908;51.354;7.458;2023-07-31T13:29:33;22.00;99.90
11704;DHT22;5908;51.354;7.458;2023-07-31T13:32:00;22.00;99.90
11704;DHT22;5908;51.354;7.458;2023-07-31T13:34:26;21.90;99.90
11704;DHT22;5908;51.354;7.458;2023-07-31T13:36:54;21.70;99.90
11704;DHT22;5908;51.354;7.458;2023-07-31T13:39:22;21.50;99.90
11704;DHT22;5908;51.354;7.458;2023-07-31T13:41:50;21.80;99.90
11704;DHT22;5908;51.354;7.458;2023-07-31T13:44:16;21.40;99.90
11704;DHT22;5908;51.354;7.458;2023-07-31T13:46:43;21.30;99.90
11704;DHT22;5908;51.354;7.458;2023-07-31T13:49:10;21.70;99.90
11704;DHT22;5908;51.354;7.458;2023-07-31T13:51:37;21.90;99.90
11704;DHT22;5908;51.354;7.458;2023-07-31T13:54:05;21.90;99.90
11704;DHT22;5908;51.354;7.458;2023-07-31T13:56:32;22.00;99.90
11704;DHT22;5908;51.354;7.458;2023-07-31T13:59:00;21.40;99.90
11704;DHT22;5908;51.354;7.458;2023-07-31T14:01:27;21.20;99.90
11704;DHT22;5908;51.354;7.458;2023-07-31T14:03:54;21.50;99.90
11704;DHT22;5908;51.354;7.458;2023-07-31T14:06:21;21.30;99.90
11704;DHT22;5908;51.354;7.458;2023-07-31T14:08:48;21.60;99.90
11704;DHT22;5908;51.354;7.458;2023-07-31T14:11:15;22.00;99.90
11704;DHT22;5908;51.354;7.458;2023-07-31T14:13:41;22.20;99.90
11704;DHT22;5908;51.354;7.458;2023-07-31T14:16:10;22.40;99.90
11704;DHT22;5908;51.354;7.458;2023-07-31T14:18:36;22.60;99.90
11704;DHT22;5908;51.354;7.458;2023-07-31T14:21:03;22.80;99.90
11704;DHT22;5908;51.354;7.458;2023-07-31T14:23:30;22.90;99.90
11704;DHT22;5908;51.354;7.458;2023-07-31T14:25:57;23.20;99.90
11704;DHT22;5908;51.354;7.458;2023-07-31T14:28:23;23.60;99.90
11704;DHT22;5908;51.354;7.458;2023-07-31T14:30:50;24.10;99.90
11704;DHT22;5908;51.354;7.458;2023-07-31T14:33:18;24.40;99.90
11704;DHT22;5908;51.354;7.458;2023-07-31T14:35:45;24.20;99.60
11704;DHT22;5908;51.354;7.458;2023-07-31T14:38:11;24.10;99.50
11704;DHT22;5908;51.354;7.458;2023-07-31T14:40:38;24.00;99.60
11704;DHT22;5908;51.354;7.458;2023-07-31T14:43:05;23.90;99.90
11704;DHT22;5908;51.354;7.458;2023-07-31T14:45:32;23.80;99.90
11704;DHT22;5908;51.354;7.458;2023-07-31T14:47:59;23.60;99.90
11704;DHT22;5908;51.354;7.458;2023-07-31T14:50:27;23.50;99.90
11704;DHT22;5908;51.354;7.458;2023-07-31T14:52:54;23.30;99.90
11704;DHT22;5908;51.354;7.458;2023-07-31T14:55:20;23.50;99.90
11704;DHT22;5908;51.354;7.458;2023-07-31T14:57:47;23.50;99.90
11704;DHT22;5908;51.354;7.458;2023-07-31T15:00:15;23.40;99.90
11704;DHT22;5908;51.354;7.458;2023-07-31T15:02:41;23.20;99.90
11704;DHT22;5908;51.354;7.458;2023-07-31T15:05:08;23.00;99.90
11704;DHT22;5908;51.354;7.458;2023-07-31T15:07:36;22.90;99.90
11704;DHT22;5908;51.354;7.458;2023-07-31T15:10:04;22.90;99.90
11704;DHT22;5908;51.354;7.458;2023-07-31T15:12:32;22.90;99.90
11704;DHT22;5908;51.354;7.458;2023-07-31T15:14:58;22.90;99.90
11704;DHT22;5908;51.354;7.458;2023-07-31T15:17:25;23.00;99.90
11704;DHT22;5908;51.354;7.458;2023-07-31T15:19:52;23.20;99.90
11704;DHT22;5908;51.354;7.458;2023-07-31T15:22:18;23.30;99.90
11704;DHT22;5908;51.354;7.458;2023-07-31T15:24:47;23.40;99.90
11704;DHT22;5908;51.354;7.458;2023-07-31T15:27:14;23.30;99.90
11704;DHT22;5908;51.354;7.458;2023-07-31T15:29:41;23.10;99.90
11704;DHT22;5908;51.354;7.458;2023-07-31T15:32:08;22.90;99.90
11704;DHT22;5908;51.354;7.458;2023-07-31T15:34:35;22.70;99.90
11704;DHT22;5908;51.354;7.458;2023-07-31T15:37:02;22.50;99.90
11704;DHT22;5908;51.354;7.458;2023-07-31T15:39:28;22.70;99.90
11704;DHT22;5908;51.354;7.458;2023-07-31T15:41:57;22.30;99.90
11704;DHT22;5908;51.354;7.458;2023-07-31T15:44:23;22.30;99.90
11704;DHT22;5908;51.354;7.458;2023-07-31T15:46:50;22.40;99.90